Time;durP1;ratioP1;P1;durP2;ratioP2;P2;SDS_P1;SDS_P2;PMS_P1;PMS_P2;Temp;Humidity;BMP_temperature;BMP_pressure;BME280_temperature;BME280_humidity;BME280_pressure;Samples;Min_cycle;Max_cycle;Signal;HPM_P1;HPM_P2
2023/09/06 00:00:30;;;;;;;0.00;0.00;;;;;;;15.74;100.00;101703.94;5113229;28;20475;-46
2023/09/06 00:02:56;;;;;;;0.10;0.10;;;;;;;15.75;100.00;101697.91;5113743;28;20024;-47
2023/09/06 00:05:21;;;;;;;0.00;0.00;;;;;;;15.75;100.00;101699.59;5112511;28;20027;-47
2023/09/06 00:07:47;;;;;;;0.10;0.10;;;;;;;15.88;100.00;101701.66;5113443;28;20503;-49
2023/09/06 00:10:14;;;;;;;0.10;0.10;;;;;;;15.79;100.00;101706.63;5112470;28;20045;-50
2023/09/06 00:12:40;;;;;;;0.10;0.10;;;;;;;15.78;100.00;101700.53;5113711;28;20066;-47
2023/09/06 00:15:06;;;;;;;0.00;0.00;;;;;;;15.78;100.00;101692.75;5113955;28;20386;-46
2023/09/06 00:17:31;;;;;;;0.10;0.10;;;;;;;15.74;100.00;101692.66;5112325;28;20111;-48
2023/09/06 00:19:56;;;;;;;0.10;0.10;;;;;;;15.72;100.00;101683.94;5113510;28;20046;-47
2023/09/06 00:22:22;;;;;;;0.10;0.10;;;;;;;15.72;100.00;101679.63;5113071;28;20036;-49
2023/09/06 00:24:47;;;;;;;0.10;0.10;;;;;;;15.66;100.00;101679.50;5112701;28;20031;-47
2023/09/06 00:27:14;;;;;;;0.00;0.00;;;;;;;15.61;100.00;101686.31;5113205;28;20028;-46
2023/09/06 00:29:41;;;;;;;0.10;0.10;;;;;;;15.69;100.00;101676.09;5113445;28;20034;-46
2023/09/06 00:32:06;;;;;;;0.10;0.10;;;;;;;15.69;100.00;101679.56;5112649;28;20055;-48
2023/09/06 00:34:33;;;;;;;0.10;0.10;;;;;;;15.71;100.00;101676.97;5112988;28;20055;-46
2023/09/06 00:36:58;;;;;;;0.10;0.10;;;;;;;15.67;100.00;101680.38;5113217;28;20493;-47
2023/09/06 00:39:28;;;;;;;0.00;0.00;;;;;;;15.58;100.00;101686.22;5112036;28;20032;-48
2023/09/06 00:41:53;;;;;;;0.10;0.10;;;;;;;15.63;100.00;101679.41;5113107;28;20027;-48
2023/09/06 00:44:19;;;;;;;0.10;0.10;;;;;;;15.64;100.00;101682.03;5112914;28;20028;-47
2023/09/06 00:46:45;;;;;;;0.10;0.10;;;;;;;15.58;100.00;101686.22;5112329;28;20030;-49
2023/09/06 00:49:10;;;;;;;0.00;0.00;;;;;;;15.51;100.00;101685.22;5113182;28;20107;-48
2023/09/06 00:51:36;;;;;;;0.10;0.10;;;;;;;15.51;100.00;101689.56;5112826;28;20058;-47
2023/09/06 00:54:02;;;;;;;0.10;0.10;;;;;;;15.53;100.00;101690.44;5112334;28;20099;-47
2023/09/06 00:56:29;;;;;;;0.10;0.10;;;;;;;15.45;100.00;101695.47;5112665;28;20035;-50
2023/09/06 00:58:54;;;;;;;0.00;0.00;;;;;;;15.52;100.00;101694.78;5113206;28;20027;-47
2023/09/06 01:01:20;;;;;;;0.10;0.10;;;;;;;15.45;100.00;101695.47;5111913;28;20072;-47
2023/09/06 01:03:45;;;;;;;0.10;0.10;;;;;;;15.47;100.00;101696.41;5114265;28;20016;-46
2023/09/06 01:06:20;;;;;;;0.00;0.00;;;;;;;15.48;100.00;101699.03;5116972;28;20054;-49
2023/09/06 01:08:57;;;;;;;0.10;0.10;;;;;;;15.44;100.00;101697.19;5116089;28;20409;-47
2023/09/06 01:11:24;;;;;;;0.00;0.00;;;;;;;15.45;100.00;101701.56;5116658;28;20032;-50
2023/09/06 01:13:52;;;;;;;0.00;0.00;;;;;;;15.43;100.00;101704.97;5116162;28;20031;-51
2023/09/06 01:16:28;;;;;;;0.10;0.10;;;;;;;15.44;100.00;101707.59;5116625;28;20019;-47
2023/09/06 01:18:54;;;;;;;0.10;0.10;;;;;;;15.38;100.00;101710.03;5116629;28;20455;-46
2023/09/06 01:21:25;;;;;;;0.00;0.00;;;;;;;15.38;100.00;101704.84;5115820;28;20019;-49
2023/09/06 01:23:51;;;;;;;0.10;0.10;;;;;;;15.37;100.00;101703.09;5116507;28;20459;-50
2023/09/06 01:26:18;;;;;;;0.10;0.10;;;;;;;15.38;100.00;101699.66;5116325;28;20035;-48
2023/09/06 01:28:43;;;;;;;0.10;0.10;;;;;;;15.34;100.00;101697.81;5115868;28;20027;-48
2023/09/06 01:31:09;;;;;;;0.10;0.10;;;;;;;15.34;100.00;101704.72;5116609;28;20031;-48
2023/09/06 01:33:34;;;;;;;0.10;0.10;;;;;;;15.26;100.00;101700.25;5116081;28;20052;-49
2023/09/06 01:35:59;;;;;;;0.10;0.10;;;;;;;15.24;100.00;101704.50;5115801;28;20019;-47
2023/09/06 01:38:25;;;;;;;0.00;0.00;;;;;;;15.23;100.00;101704.47;5116065;28;20027;-46
2023/09/06 01:40:53;;;;;;;0.10;0.10;;;;;;;15.20;100.00;101712.22;5116226;28;20102;-48
2023/09/06 01:43:18;;;;;;;0.00;0.00;;;;;;;15.21;100.00;101708.75;5115172;28;20039;-47
2023/09/06 01:45:50;;;;;;;0.10;0.10;;;;;;;15.17;100.00;101707.81;5116201;28;20375;-49
2023/09/06 01:48:16;;;;;;;0.10;0.10;;;;;;;15.21;100.00;101709.63;5115730;28;20520;-47
2023/09/06 01:50:42;;;;;;;0.10;0.10;;;;;;;15.22;100.00;101706.22;5115544;28;20098;-51
2023/09/06 01:53:07;;;;;;;0.10;0.10;;;;;;;15.23;100.00;101705.34;5116117;28;20443;-50
2023/09/06 01:55:32;;;;;;;0.10;0.10;;;;;;;15.26;100.00;101704.53;5115484;28;20474;-47
2023/09/06 01:57:58;;;;;;;0.10;0.10;;;;;;;15.19;100.00;101702.66;5115270;28;20049;-47
2023/09/06 02:02:49;;;;;;;0.10;0.10;;;;;;;15.04;100.00;101703.13;5115067;28;20127;-47
2023/09/06 02:05:14;;;;;;;0.10;0.10;;;;;;;15.03;100.00;101699.69;5115817;28;20039;-47
2023/09/06 02:07:40;;;;;;;0.10;0.10;;;;;;;15.01;100.00;101703.94;5115839;28;20103;-48
2023/09/06 02:10:07;;;;;;;0.10;0.10;;;;;;;14.99;100.00;101713.44;5115267;28;20034;-45
2023/09/06 02:12:33;;;;;;;0.10;0.10;;;;;;;14.95;100.00;101704.69;5115561;28;20012;-47
2023/09/06 02:14:58;;;;;;;0.10;0.10;;;;;;;14.98;100.00;101704.75;5114640;28;20042;-46
2023/09/06 02:17:24;;;;;;;0.10;0.10;;;;;;;14.91;100.00;101710.63;5114244;28;20080;-47
2023/09/06 02:19:49;;;;;;;0.03;0.03;;;;;;;14.88;100.00;101710.53;5115892;28;20045;-49
2023/09/06 02:22:15;;;;;;;0.10;0.10;;;;;;;14.81;100.00;101706.91;5115429;28;20019;-47
2023/09/06 02:24:40;;;;;;;0.10;0.10;;;;;;;14.81;100.00;101714.69;5114686;28;20038;-50
2023/09/06 02:27:05;;;;;;;0.00;0.00;;;;;;;14.88;100.00;101707.94;5115436;28;20055;-46
2023/09/06 02:29:31;;;;;;;0.10;0.10;;;;;;;14.93;100.00;101710.66;5115139;28;20118;-47
2023/09/06 02:31:57;;;;;;;0.10;0.10;;;;;;;14.91;100.00;101710.63;5114543;28;20045;-49
2023/09/06 02:34:22;;;;;;;0.10;0.10;;;;;;;14.90;100.00;101713.16;5115187;28;20110;-47
2023/09/06 02:36:47;;;;;;;0.10;0.10;;;;;;;14.96;100.00;101710.75;5115430;28;20032;-48
2023/09/06 02:39:13;;;;;;;0.10;0.10;;;;;;;14.86;100.00;101707.03;5114251;28;20110;-47
2023/09/06 02:41:38;;;;;;;0.10;0.10;;;;;;;14.90;100.00;101710.56;5115325;28;20068;-50
2023/09/06 02:44:05;;;;;;;0.10;0.10;;;;;;;14.80;100.00;101720.72;5115135;28;20031;-47
2023/09/06 02:46:33;;;;;;;0.10;0.10;;;;;;;14.79;100.00;101716.38;5113822;28;20030;-46
2023/09/06 02:49:01;;;;;;;0.00;0.00;;;;;;;14.79;100.00;101718.97;5115020;28;20367;-46
2023/09/06 02:51:29;;;;;;;;;;;;;;;14.87;100.00;101726.09;5115294;28;20078;-48
2023/09/06 02:53:56;;;;;;;0.10;0.10;;;;;;;14.74;100.00;101724.88;5114393;28;19912;-48
2023/09/06 02:56:22;;;;;;;0.10;0.10;;;;;;;14.70;100.00;101716.13;5114402;28;20372;-46
2023/09/06 02:58:48;;;;;;;0.00;0.00;;;;;;;14.68;100.00;101720.41;5114721;28;20023;-48
2023/09/06 03:01:19;;;;;;;0.00;0.00;;;;;;;14.62;100.00;101715.88;5113659;27;20023;-48
2023/09/06 03:03:51;;;;;;;0.10;0.10;;;;;;;14.61;100.00;101721.03;5114892;28;20020;-47
2023/09/06 03:06:18;;;;;;;0.00;0.00;;;;;;;14.31;100.00;101724.56;5113664;28;20058;-47
2023/09/06 03:08:46;;;;;;;0.00;0.00;;;;;;;14.29;100.00;101719.34;5114606;28;20024;-51
2023/09/06 03:11:14;;;;;;;0.10;0.10;;;;;;;14.29;100.00;101721.03;5114998;28;20043;-47
2023/09/06 03:13:40;;;;;;;0.10;0.10;;;;;;;14.33;100.00;101722.88;5113632;28;20110;-47
2023/09/06 03:16:06;;;;;;;0.08;0.08;;;;;;;14.25;100.00;101724.38;5114631;28;20024;-48
2023/09/06 03:18:31;;;;;;;0.10;0.10;;;;;;;14.22;100.00;101724.31;5114290;28;20035;-49
2023/09/06 03:20:56;;;;;;;0.10;0.10;;;;;;;14.22;100.00;101724.31;5113790;28;20073;-49
2023/09/06 03:23:24;;;;;;;0.00;0.00;;;;;;;14.18;100.00;101722.44;5114163;28;20102;-47
2023/09/06 03:25:57;;;;;;;0.10;0.10;;;;;;;14.22;100.00;101727.75;5114486;28;20027;-47
2023/09/06 03:28:25;;;;;;;0.10;0.10;;;;;;;14.20;100.00;101719.03;5112921;28;20024;-46
2023/09/06 03:30:52;;;;;;;0.10;0.10;;;;;;;14.14;100.00;101724.94;5114358;28;20027;-46
2023/09/06 03:33:17;;;;;;;0.10;0.10;;;;;;;14.11;100.00;101727.47;5113939;28;20038;-47
2023/09/06 03:35:45;;;;;;;0.10;0.10;;;;;;;14.09;100.00;101729.13;5113323;28;20019;-47
2023/09/06 03:38:10;;;;;;;0.00;0.00;;;;;;;13.95;100.00;101725.25;5114141;28;20051;-46
2023/09/06 03:40:36;;;;;;;0.10;0.10;;;;;;;13.99;100.00;101737.44;5113773;28;20111;-48
2023/09/06 03:43:19;;;;;;;0.10;0.10;;;;;;;13.96;100.00;101732.19;5113185;28;20059;-46
2023/09/06 03:45:51;;;;;;;0.00;0.00;;;;;;;13.87;100.00;101734.50;5113915;28;20024;-46
2023/09/06 03:48:22;;;;;;;0.10;0.10;;;;;;;13.86;100.00;101730.16;5112620;28;20463;-49
2023/09/06 03:50:49;;;;;;;0.10;0.10;;;;;;;13.74;100.00;101726.34;5113774;28;20111;-48
2023/09/06 03:53:15;;;;;;;0.10;0.10;;;;;;;13.78;100.00;101735.09;5113466;28;20016;-48
2023/09/06 03:55:41;;;;;;;0.10;0.10;;;;;;;13.80;100.00;101731.72;5112996;28;20048;-46
2023/09/06 03:58:07;;;;;;;0.10;0.10;;;;;;;13.73;100.00;101737.53;5113824;28;20031;-47
2023/09/06 04:00:39;;;;;;;0.10;0.10;;;;;;;13.73;100.00;101750.50;5113529;28;20032;-47
2023/09/06 04:03:07;;;;;;;0.10;0.10;;;;;;;13.63;100.00;101743.25;5112807;28;20486;-47
2023/09/06 04:05:33;;;;;;;0.00;0.00;;;;;;;13.62;100.00;101739.81;5113301;28;20102;-47
2023/09/06 04:08:03;;;;;;;0.10;0.10;;;;;;;13.61;100.00;101742.34;5113828;27;20104;-46
2023/09/06 04:10:44;;;;;;;0.10;0.10;;;;;;;13.55;100.00;101745.63;5112487;27;20031;-49
2023/09/06 04:13:12;;;;;;;0.10;0.10;;;;;;;13.49;100.00;101741.13;5113549;28;20461;-48
2023/09/06 04:15:39;;;;;;;0.10;0.10;;;;;;;13.45;100.00;101749.63;5113538;28;20058;-47
2023/09/06 04:18:07;;;;;;;0.10;0.10;;;;;;;13.47;100.00;101753.13;5112586;28;20073;-50
2023/09/06 04:20:37;;;;;;;0.10;0.10;;;;;;;13.45;100.00;101754.81;5112932;28;20462;-46
2023/09/06 04:23:07;;;;;;;0.10;0.10;;;;;;;13.34;100.00;101753.56;5113434;28;20463;-46
2023/09/06 04:25:41;;;;;;;0.00;0.00;;;;;;;13.33;100.00;101754.38;5112521;28;20027;-48
2023/09/06 04:28:07;;;;;;;0.10;0.10;;;;;;;13.38;100.00;101747.66;5113553;28;20035;-47
2023/09/06 04:30:36;;;;;;;0.10;0.10;;;;;;;13.35;100.00;101757.91;5112465;28;20046;-46
2023/09/06 04:33:03;;;;;;;0.10;0.10;;;;;;;13.38;100.00;101758.03;5113480;28;20024;-50
2023/09/06 04:35:44;;;;;;;0.10;0.10;;;;;;;13.39;100.00;101759.78;5113164;28;20024;-46
2023/09/06 04:38:11;;;;;;;0.10;0.10;;;;;;;13.37;100.00;101760.56;5112796;28;20024;-47
2023/09/06 04:40:41;;;;;;;0.10;0.10;;;;;;;13.33;100.00;101759.56;5117319;28;20070;-46
2023/09/06 04:43:07;;;;;;;0.10;0.10;;;;;;;13.32;100.00;101752.59;5117299;27;20031;-48
2023/09/06 04:45:33;;;;;;;0.10;0.10;;;;;;;13.33;100.00;101759.56;5116598;28;20102;-47
2023/09/06 04:47:58;;;;;;;0.10;0.10;;;;;;;13.33;100.00;101759.56;5117492;28;20451;-49
2023/09/06 04:50:24;;;;;;;0.10;0.10;;;;;;;13.29;100.00;101758.56;5116973;28;20155;-50
2023/09/06 04:52:53;;;;;;;0.10;0.10;;;;;;;13.27;100.00;101761.94;5116507;28;20019;-47
2023/09/06 04:55:19;;;;;;;0.10;0.10;;;;;;;13.32;100.00;101762.97;5116694;27;20059;-46
2023/09/06 04:57:46;;;;;;;0.13;0.13;;;;;;;13.27;100.00;101769.69;5117114;28;20024;-46
2023/09/06 05:00:47;;;;;;;0.10;0.10;;;;;;;13.32;100.00;101768.13;5116200;28;20111;-46
2023/09/06 05:03:10;;;;;;;0.10;0.10;;;;;;;13.30;100.00;101770.69;5113910;28;20055;-46
2023/09/06 05:05:37;;;;;;;0.10;0.10;;;;;;;13.33;100.00;101775.94;5115891;28;20027;-45
2023/09/06 05:08:03;;;;;;;0.10;0.10;;;;;;;13.32;100.00;101779.41;5116864;28;20364;-47
2023/09/06 05:10:28;;;;;;;0.10;0.10;;;;;;;13.32;100.00;101771.63;5116573;28;20027;-47
2023/09/06 05:12:54;;;;;;;0.10;0.10;;;;;;;13.31;100.00;101776.72;5116219;28;20031;-46
2023/09/06 05:15:19;;;;;;;0.08;0.08;;;;;;;13.30;100.00;101775.88;5116759;28;20031;-47
2023/09/06 05:17:44;;;;;;;0.10;0.10;;;;;;;13.35;100.00;101788.97;5116676;28;20028;-49
2023/09/06 05:20:35;;;;;;;0.10;0.10;;;;;;;13.37;100.00;101787.34;5115976;28;20076;-49
2023/09/06 05:23:11;;;;;;;0.10;0.10;;;;;;;13.46;100.00;101794.53;5116793;28;20096;-49
2023/09/06 05:25:37;;;;;;;0.10;0.10;;;;;;;13.40;100.00;101792.63;5116779;27;20023;-46
2023/09/06 05:28:05;;;;;;;0.00;0.00;;;;;;;13.50;100.00;101789.50;5115655;28;20375;-48
2023/09/06 05:30:37;;;;;;;;;;;;;;;13.56;100.00;101794.00;5116684;28;20020;-46
2023/09/06 05:33:02;;;;;;;0.10;0.10;;;;;;;13.57;100.00;101794.88;5116545;28;19908;-46
2023/09/06 05:35:27;;;;;;;0.10;0.10;;;;;;;13.59;100.00;101798.41;5115611;28;20414;-48
2023/09/06 05:37:54;;;;;;;0.10;0.10;;;;;;;13.68;100.00;101796.09;5116340;28;20409;-50
2023/09/06 05:40:22;;;;;;;0.10;0.10;;;;;;;13.73;100.00;101794.53;5116146;28;20019;-47
2023/09/06 05:42:49;;;;;;;0.10;0.10;;;;;;;13.73;100.00;101797.13;5115691;28;20020;-46
2023/09/06 05:45:14;;;;;;;0.17;0.17;;;;;;;13.84;100.00;101800.06;5116078;27;20057;-46
2023/09/06 05:47:39;;;;;;;0.10;0.10;;;;;;;13.88;100.00;101801.94;5116021;28;20564;-45
2023/09/06 05:50:06;;;;;;;0.10;0.10;;;;;;;13.95;100.00;101800.41;5115532;28;20041;-48
2023/09/06 05:52:32;;;;;;;0.10;0.10;;;;;;;14.03;100.00;101793.72;5115996;28;20076;-47
2023/09/06 05:54:57;;;;;;;0.10;0.10;;;;;;;14.15;100.00;101795.81;5114462;28;20047;-47
2023/09/06 05:57:23;;;;;;;0.10;0.10;;;;;;;14.23;100.00;101798.63;5115788;28;20020;-46
2023/09/06 05:59:49;;;;;;;0.10;0.10;;;;;;;14.32;100.00;101804.97;5115912;28;20043;-47
2023/09/06 06:02:14;;;;;;;0.10;0.10;;;;;;;14.39;100.00;101799.97;5114708;28;20032;-50
2023/09/06 06:04:45;;;;;;;0.10;0.10;;;;;;;14.52;100.00;101811.59;5116074;28;20016;-47
2023/09/06 06:07:12;;;;;;;0.10;0.10;;;;;;;14.75;100.00;101804.50;5115997;28;20028;-49
2023/09/06 06:09:38;;;;;;;0.10;0.10;;;;;;;14.85;100.00;101805.59;5115143;28;20034;-49
2023/09/06 06:12:03;;;;;;;0.10;0.10;;;;;;;14.93;100.00;101807.56;5115789;28;20114;-48
2023/09/06 06:14:30;;;;;;;0.10;0.10;;;;;;;15.05;100.00;101814.81;5115404;28;20031;-46
2023/09/06 06:16:55;;;;;;;0.10;0.10;;;;;;;15.14;100.00;101820.28;5114889;28;20196;-46
2023/09/06 06:19:20;;;;;;;0.10;0.10;;;;;;;15.27;100.00;101815.38;5115450;28;20077;-49
2023/09/06 06:21:46;;;;;;;0.10;0.10;;;;;;;15.38;100.00;101821.72;5115751;28;20446;-46
2023/09/06 06:24:12;;;;;;;0.10;0.10;;;;;;;15.52;100.00;101821.19;5114281;28;20031;-47
2023/09/06 06:26:38;;;;;;;0.10;0.10;;;;;;;15.67;100.00;101816.38;5115334;28;20023;-47
2023/09/06 06:29:06;;;;;;;0.10;0.10;;;;;;;15.80;100.00;101821.03;5115339;28;20030;-46
2023/09/06 06:31:31;;;;;;;0.00;0.00;;;;;;;15.93;100.00;101823.94;5114063;28;20486;-48
2023/09/06 06:33:58;;;;;;;0.10;0.10;;;;;;;15.92;100.00;101827.38;5115259;28;20034;-49
2023/09/06 06:36:24;;;;;;;0.10;0.10;;;;;;;16.10;100.00;101835.63;5115214;28;20020;-49
2023/09/06 06:38:49;;;;;;;0.10;0.10;;;;;;;16.21;100.00;101835.84;5114351;28;20348;-47
2023/09/06 06:41:22;;;;;;;0.10;0.10;;;;;;;16.32;100.00;101830.88;5114895;28;20020;-47
2023/09/06 06:43:47;;;;;;;0.10;0.10;;;;;;;16.46;100.00;101834.66;5115081;28;20020;-48
2023/09/06 06:46:30;;;;;;;0.10;0.10;;;;;;;16.61;100.00;101836.69;5114214;28;20072;-46
2023/09/06 06:48:56;;;;;;;0.00;0.00;;;;;;;16.78;100.00;101833.53;5115167;28;20031;-46
2023/09/06 06:51:25;;;;;;;0.10;0.10;;;;;;;16.91;100.00;101845.13;5113982;28;20132;-49
2023/09/06 06:53:50;;;;;;;0.08;0.08;;;;;;;17.09;100.00;101845.47;5114884;28;20098;-46
2023/09/06 06:56:21;;;;;;;0.10;0.10;;;;;;;17.25;100.00;101846.63;5114515;28;20067;-48
2023/09/06 06:58:47;;;;;;;0.10;0.10;;;;;;;17.42;100.00;101848.66;5114272;28;20078;-50
2023/09/06 07:01:13;;;;;;;0.10;0.10;;;;;;;17.57;100.00;101848.91;5113808;28;20529;-46
2023/09/06 07:03:38;;;;;;;0.00;0.00;;;;;;;17.70;100.00;101850.00;5114717;28;20027;-46
2023/09/06 07:06:05;;;;;;;0.00;0.00;;;;;;;17.82;100.00;101844.09;5113861;28;20102;-47
2023/09/06 07:08:30;;;;;;;0.05;0.05;;;;;;;18.02;100.00;101851.38;5114368;28;20054;-47
2023/09/06 07:10:55;;;;;;;0.00;0.00;;;;;;;18.16;100.00;101847.22;5114653;28;20390;-46
2023/09/06 07:13:21;;;;;;;0.10;0.10;;;;;;;18.30;100.00;101842.22;5113601;28;20024;-46
2023/09/06 07:15:46;;;;;;;0.00;0.00;;;;;;;18.37;100.00;101844.06;5114589;28;20024;-48
2023/09/06 07:18:12;;;;;;;0.10;0.10;;;;;;;18.60;100.00;101846.06;5114324;28;20068;-47
2023/09/06 07:20:38;;;;;;;0.00;0.00;;;;;;;18.64;100.00;101844.38;5113725;28;20072;-46
2023/09/06 07:23:03;;;;;;;0.00;0.00;;;;;;;18.88;100.00;101844.66;5114365;28;20055;-47
2023/09/06 07:25:29;;;;;;;0.00;0.00;;;;;;;18.99;100.00;101841.31;5114033;28;20032;-51
2023/09/06 07:27:54;;;;;;;0.00;0.00;;;;;;;19.15;100.00;101843.22;5113552;28;20429;-47
2023/09/06 07:30:19;;;;;;;0.00;0.00;;;;;;;19.22;100.00;101841.53;5114063;28;20476;-46
2023/09/06 07:32:45;;;;;;;0.00;0.00;;;;;;;19.41;100.00;101848.69;5114276;28;20027;-48
2023/09/06 07:35:11;;;;;;;0.10;0.10;;;;;;;19.59;100.00;101847.09;5113575;28;20047;-50
2023/09/06 07:37:36;;;;;;;0.00;0.00;;;;;;;19.66;100.00;101840.19;5114196;28;20424;-47
2023/09/06 07:40:03;;;;;;;0.00;0.00;;;;;;;19.79;100.00;101849.00;5113935;28;20047;-47
2023/09/06 07:42:29;;;;;;;0.00;0.00;;;;;;;19.92;100.00;101856.09;5112955;28;20390;-47
2023/09/06 07:44:55;;;;;;;0.10;0.10;;;;;;;20.08;100.00;101851.84;5113973;28;20095;-50
2023/09/06 07:47:20;;;;;;;0.00;0.00;;;;;;;20.25;100.00;101857.19;5112903;28;20032;-47
2023/09/06 07:49:45;;;;;;;0.00;0.00;;;;;;;20.39;100.00;101858.13;5114077;28;20091;-46
2023/09/06 07:52:11;;;;;;;0.00;0.00;;;;;;;20.47;100.00;101858.16;5113726;28;20110;-46
2023/09/06 07:54:36;;;;;;;0.00;0.00;;;;;;;20.64;100.00;101858.22;5112799;28;20016;-47
2023/09/06 07:57:02;;;;;;;0.00;0.00;;;;;;;20.79;100.00;101859.19;5113694;28;20485;-47
2023/09/06 07:59:27;;;;;;;0.00;0.00;;;;;;;20.92;100.00;101853.13;5113344;28;20032;-47
2023/09/06 08:01:53;;;;;;;0.00;0.00;;;;;;;21.02;100.00;101864.50;5112858;28;20467;-48
2023/09/06 08:04:19;;;;;;;0.00;0.00;;;;;;;21.21;98.44;101860.16;5113405;28;20023;-46
2023/09/06 08:06:46;;;;;;;0.00;0.00;;;;;;;21.44;99.86;101864.56;5113428;28;20028;-47
2023/09/06 08:09:14;;;;;;;0.00;0.00;;;;;;;21.61;96.11;101860.22;5112555;28;20026;-47
2023/09/06 08:11:39;;;;;;;0.00;0.00;;;;;;;21.66;95.08;101868.94;5113573;28;20020;-47
2023/09/06 08:14:04;;;;;;;0.00;0.00;;;;;;;21.82;96.53;101868.94;5112873;28;20030;-47
2023/09/06 08:16:31;;;;;;;0.00;0.00;;;;;;;21.92;95.97;101868.06;5112619;28;20429;-47
2023/09/06 08:18:56;;;;;;;0.00;0.00;;;;;;;22.00;94.25;101868.94;5113612;28;20031;-48
2023/09/06 08:21:22;;;;;;;0.00;0.00;;;;;;;22.08;96.39;101871.56;5113166;28;20028;-47
2023/09/06 08:23:47;;;;;;;0.00;0.00;;;;;;;22.24;95.19;101874.13;5112558;28;20028;-49
2023/09/06 08:26:13;;;;;;;0.00;0.00;;;;;;;22.20;93.58;101871.50;5112968;28;20417;-46
2023/09/06 08:28:39;;;;;;;0.00;0.00;;;;;;;22.41;97.21;101866.22;5113151;28;20032;-46
2023/09/06 08:31:04;;;;;;;0.00;0.00;;;;;;;22.38;94.90;101867.13;5112632;28;20100;-47
2023/09/06 08:33:30;;;;;;;0.00;0.00;;;;;;;22.43;96.27;101857.47;5112998;28;20379;-50
2023/09/06 08:35:55;;;;;;;0.00;0.00;;;;;;;22.64;94.13;101867.00;5113374;28;20038;-50
2023/09/06 08:38:20;;;;;;;0.00;0.00;;;;;;;22.89;94.78;101861.63;5112030;28;20098;-46
2023/09/06 08:40:46;;;;;;;0.00;0.00;;;;;;;23.16;91.89;101870.25;5113174;28;20050;-47
2023/09/06 08:43:12;;;;;;;0.00;0.00;;;;;;;23.20;86.23;101866.72;5113356;28;20023;-46
2023/09/06 08:45:42;;;;;;;0.00;0.00;;;;;;;23.38;86.16;101870.13;5112277;28;20382;-51
2023/09/06 08:48:08;;;;;;;0.00;0.00;;;;;;;23.28;88.73;101869.28;5113234;28;20123;-50
2023/09/06 08:50:35;;;;;;;0.00;0.00;;;;;;;23.30;88.41;101873.66;5113195;28;20028;-46
2023/09/06 08:53:01;;;;;;;0.00;0.00;;;;;;;23.53;85.13;101877.88;5112765;28;20027;-47
2023/09/06 08:55:27;;;;;;;0.00;0.00;;;;;;;23.60;86.04;101871.69;5112734;28;20138;-47
2023/09/06 08:57:53;;;;;;;0.00;0.00;;;;;;;23.69;90.21;101873.34;5112363;28;20050;-47
2023/09/06 09:00:23;;;;;;;0.00;0.00;;;;;;;23.68;87.33;101874.28;5112764;28;20027;-47
2023/09/06 09:02:49;;;;;;;0.00;0.00;;;;;;;23.86;87.96;101872.34;5113115;28;20024;-49
2023/09/06 09:05:14;;;;;;;0.00;0.00;;;;;;;24.05;86.37;101875.69;5111986;28;20028;-47
2023/09/06 09:07:39;;;;;;;0.00;0.00;;;;;;;24.32;84.34;101867.50;5112870;28;20054;-47
2023/09/06 09:10:14;;;;;;;0.00;0.00;;;;;;;24.49;81.02;101869.94;5113125;28;20019;-47
2023/09/06 09:12:39;;;;;;;0.00;0.00;;;;;;;24.64;78.07;101878.56;5112271;28;20036;-46
2023/09/06 09:15:07;;;;;;;0.00;0.00;;;;;;;24.87;78.33;101886.16;5112931;28;20396;-47
2023/09/06 09:17:37;;;;;;;0.00;0.00;;;;;;;25.19;76.03;101881.31;5112550;28;20047;-46
2023/09/06 09:20:03;;;;;;;0.00;0.00;;;;;;;25.34;74.85;101880.22;5112047;28;20020;-47
2023/09/06 09:22:32;;;;;;;0.00;0.00;;;;;;;25.41;71.95;101881.88;5112789;28;20024;-51
2023/09/06 09:25:04;;;;;;;0.10;0.00;;;;;;;25.44;69.05;101873.94;5114345;28;20022;-47
2023/09/06 09:27:31;;;;;;;0.00;0.00;;;;;;;25.57;71.54;101878.09;5115547;28;20035;-51
2023/09/06 09:29:59;;;;;;;0.00;0.00;;;;;;;25.96;67.69;101880.06;5116577;28;20034;-48
2023/09/06 09:32:25;;;;;;;0.00;0.00;;;;;;;26.22;63.97;101882.25;5116147;28;20387;-47
2023/09/06 09:34:52;;;;;;;0.00;0.00;;;;;;;26.42;62.12;101878.34;5115670;28;20467;-50
2023/09/06 09:37:18;;;;;;;0.00;0.00;;;;;;;26.18;61.49;101877.91;5116208;28;20114;-49
2023/09/06 09:39:44;;;;;;;0.00;0.00;;;;;;;26.31;64.70;101881.19;5116622;28;20024;-51
2023/09/06 09:42:10;;;;;;;0.00;0.00;;;;;;;27.04;63.87;101875.25;5115710;28;20042;-47
2023/09/06 09:44:36;;;;;;;0.00;0.00;;;;;;;27.67;62.43;101871.97;5116002;28;20110;-47
2023/09/06 09:47:12;;;;;;;0.00;0.00;;;;;;;27.60;58.99;101877.47;5115452;28;20127;-48
2023/09/06 09:49:40;;;;;;;0.00;0.00;;;;;;;27.55;53.30;101874.06;5116378;28;20028;-48
2023/09/06 09:52:11;;;;;;;0.00;0.00;;;;;;;28.57;52.17;101871.28;5116169;28;20454;-48
2023/09/06 09:54:40;;;;;;;0.00;0.00;;;;;;;29.00;51.17;101866.47;5115266;28;20020;-47
2023/09/06 09:57:06;;;;;;;0.00;0.00;;;;;;;29.07;52.73;101870.66;5116084;28;20472;-47
2023/09/06 09:59:36;;;;;;;0.00;0.00;;;;;;;30.17;47.96;101874.94;5115763;28;20053;-50
2023/09/06 10:02:04;;;;;;;0.00;0.00;;;;;;;30.05;46.60;101870.94;5115259;28;20073;-51
2023/09/06 10:04:32;;;;;;;0.00;0.00;;;;;;;30.42;46.36;101876.69;5114982;28;20031;-48
2023/09/06 10:06:59;;;;;;;0.00;0.00;;;;;;;31.51;45.23;101875.97;5116172;28;20059;-52
2023/09/06 10:09:25;;;;;;;0.00;0.00;;;;;;;32.00;43.99;101872.97;5114796;28;20027;-51
2023/09/06 10:11:51;;;;;;;0.00;0.00;;;;;;;32.37;42.20;101881.13;5115862;27;20110;-48
2023/09/06 10:14:22;;;;;;;0.00;0.00;;;;;;;32.27;42.46;101880.72;5115338;28;20113;-48
2023/09/06 10:16:48;;;;;;;0.00;0.00;;;;;;;33.12;39.15;101874.03;5115082;27;20028;-52
2023/09/06 10:19:14;;;;;;;0.00;0.00;;;;;;;33.22;38.82;101874.44;5115360;28;20481;-51
2023/09/06 10:21:41;;;;;;;0.00;0.00;;;;;;;33.15;37.64;101874.72;5115743;28;20024;-48
2023/09/06 10:24:18;;;;;;;0.00;0.00;;;;;;;33.31;39.66;101874.00;5114827;28;20028;-48
2023/09/06 10:26:46;;;;;;;0.00;0.00;;;;;;;33.14;37.04;101870.34;5115368;28;20027;-51
2023/09/06 10:29:16;;;;;;;0.00;0.00;;;;;;;33.39;37.01;101871.81;5114548;28;20098;-48
2023/09/06 10:31:49;;;;;;;0.00;0.00;;;;;;;34.33;37.88;101865.19;5115337;28;20489;-48
2023/09/06 10:34:15;;;;;;;0.00;0.00;;;;;;;34.11;37.08;101866.31;5114917;28;20364;-48
2023/09/06 10:36:57;;;;;;;0.00;0.00;;;;;;;34.29;37.22;101869.81;5113400;28;20031;-48
2023/09/06 10:39:26;;;;;;;0.00;0.00;;;;;;;34.10;34.76;101870.81;5114809;28;20031;-52
2023/09/06 10:42:09;;;;;;;0.00;0.00;;;;;;;34.55;35.78;101859.50;5115129;28;20084;-49
2023/09/06 10:44:56;;;;;;;0.00;0.00;;;;;;;34.98;36.59;101858.88;5114265;28;20081;-48
2023/09/06 10:47:30;;;;;;;0.00;0.00;;;;;;;34.37;33.50;101859.59;5114622;28;20475;-50
2023/09/06 10:50:17;;;;;;;0.00;0.00;;;;;;;34.61;35.28;101853.78;5115049;28;20043;-50
2023/09/06 10:52:53;;;;;;;0.00;0.00;;;;;;;34.57;34.40;101857.59;5115127;28;20024;-48
2023/09/06 10:55:24;;;;;;;0.00;0.00;;;;;;;34.63;33.94;101854.59;5114455;28;20069;-50
2023/09/06 10:57:54;;;;;;;0.00;0.00;;;;;;;34.46;32.99;101858.19;5114093;28;20068;-47
2023/09/06 11:00:25;;;;;;;0.00;0.00;;;;;;;34.57;33.90;101854.94;5114560;27;20023;-48
2023/09/06 11:03:13;;;;;;;0.00;0.00;;;;;;;34.74;33.19;101857.50;5114962;28;20030;-50
2023/09/06 11:05:46;;;;;;;0.00;0.00;;;;;;;34.53;33.14;101848.03;5113975;28;20467;-49
2023/09/06 11:08:22;;;;;;;0.00;0.00;;;;;;;35.20;33.44;101854.00;5114508;28;20020;-45
2023/09/06 11:10:48;;;;;;;0.00;0.00;;;;;;;35.41;31.57;101849.19;5114900;28;20031;-50
2023/09/06 11:13:18;;;;;;;0.00;0.00;;;;;;;35.36;31.40;101842.41;5113494;28;20068;-50
2023/09/06 11:15:43;;;;;;;0.00;0.00;;;;;;;36.06;29.90;101847.94;5114891;28;20020;-48
2023/09/06 11:18:09;;;;;;;0.00;0.00;;;;;;;35.65;29.72;101839.75;5114676;28;20347;-50
2023/09/06 11:20:36;;;;;;;0.00;0.00;;;;;;;36.40;29.69;101845.81;5113414;28;20268;-49
2023/09/06 11:23:02;;;;;;;;;;;;;;;37.24;32.41;101851.09;5114675;28;20023;-50